sensor_id;sensor_type;location;lat;lon;timestamp;P1;durP1;ratioP1;P2;durP2;ratioP2
10090;SDS011;5084;51.386;6.778;2024-01-25T00:01:19;20.23;;;6.17;;
10090;SDS011;5084;51.386;6.778;2024-01-25T00:03:45;19.07;;;5.47;;
10090;SDS011;5084;51.386;6.778;2024-01-25T00:06:11;14.20;;;5.43;;
10090;SDS011;5084;51.386;6.778;2024-01-25T00:08:37;14.23;;;5.57;;
10090;SDS011;5084;51.386;6.778;2024-01-25T00:11:03;18.97;;;5.27;;
10090;SDS011;5084;51.386;6.778;2024-01-25T00:13:30;18.90;;;5.57;;
10090;SDS011;5084;51.386;6.778;2024-01-25T00:15:56;19.70;;;5.73;;
10090;SDS011;5084;51.386;6.778;2024-01-25T00:18:22;21.17;;;5.83;;
10090;SDS011;5084;51.386;6.778;2024-01-25T00:20:48;15.57;;;5.67;;
10090;SDS011;5084;51.386;6.778;2024-01-25T00:23:14;17.90;;;5.87;;
10090;SDS011;5084;51.386;6.778;2024-01-25T00:25:40;14.53;;;5.30;;
10090;SDS011;5084;51.386;6.778;2024-01-25T00:28:06;14.37;;;5.07;;
10090;SDS011;5084;51.386;6.778;2024-01-25T00:30:32;15.43;;;5.03;;
10090;SDS011;5084;51.386;6.778;2024-01-25T00:32:58;13.57;;;5.17;;
10090;SDS011;5084;51.386;6.778;2024-01-25T00:35:26;14.13;;;5.77;;
10090;SDS011;5084;51.386;6.778;2024-01-25T00:37:52;15.03;;;5.47;;
10090;SDS011;5084;51.386;6.778;2024-01-25T00:40:19;18.47;;;6.73;;
10090;SDS011;5084;51.386;6.778;2024-01-25T00:42:45;15.00;;;5.53;;
10090;SDS011;5084;51.386;6.778;2024-01-25T00:45:18;15.57;;;6.60;;
10090;SDS011;5084;51.386;6.778;2024-01-25T00:47:45;16.50;;;6.20;;
10090;SDS011;5084;51.386;6.778;2024-01-25T00:50:11;18.07;;;6.20;;
10090;SDS011;5084;51.386;6.778;2024-01-25T00:52:37;13.03;;;5.07;;
10090;SDS011;5084;51.386;6.778;2024-01-25T00:55:03;16.40;;;6.53;;
10090;SDS011;5084;51.386;6.778;2024-01-25T00:57:29;16.00;;;6.30;;
10090;SDS011;5084;51.386;6.778;2024-01-25T00:59:55;20.63;;;5.90;;
10090;SDS011;5084;51.386;6.778;2024-01-25T01:02:22;15.60;;;5.57;;
10090;SDS011;5084;51.386;6.778;2024-01-25T01:04:48;19.33;;;5.50;;
10090;SDS011;5084;51.386;6.778;2024-01-25T01:07:14;17.67;;;5.53;;
10090;SDS011;5084;51.386;6.778;2024-01-25T01:09:40;15.00;;;6.37;;
10090;SDS011;5084;51.386;6.778;2024-01-25T01:12:06;17.17;;;5.97;;
10090;SDS011;5084;51.386;6.778;2024-01-25T01:14:33;16.95;;;5.90;;
10090;SDS011;5084;51.386;6.778;2024-01-25T01:16:59;15.40;;;5.47;;
10090;SDS011;5084;51.386;6.778;2024-01-25T01:19:25;12.70;;;5.50;;
10090;SDS011;5084;51.386;6.778;2024-01-25T01:21:51;16.33;;;5.20;;
10090;SDS011;5084;51.386;6.778;2024-01-25T01:24:17;16.90;;;5.97;;
10090;SDS011;5084;51.386;6.778;2024-01-25T01:26:43;20.60;;;5.77;;
10090;SDS011;5084;51.386;6.778;2024-01-25T01:29:11;15.07;;;6.00;;
10090;SDS011;5084;51.386;6.778;2024-01-25T01:31:37;15.23;;;6.00;;
10090;SDS011;5084;51.386;6.778;2024-01-25T01:34:03;15.83;;;5.77;;
10090;SDS011;5084;51.386;6.778;2024-01-25T01:36:29;19.83;;;5.47;;
10090;SDS011;5084;51.386;6.778;2024-01-25T01:38:55;17.30;;;5.67;;
10090;SDS011;5084;51.386;6.778;2024-01-25T01:41:21;11.47;;;4.77;;
10090;SDS011;5084;51.386;6.778;2024-01-25T01:43:47;12.50;;;5.37;;
10090;SDS011;5084;51.386;6.778;2024-01-25T01:46:22;8.77;;;4.83;;
10090;SDS011;5084;51.386;6.778;2024-01-25T01:48:50;11.77;;;4.10;;
10090;SDS011;5084;51.386;6.778;2024-01-25T01:51:16;15.47;;;5.93;;
10090;SDS011;5084;51.386;6.778;2024-01-25T01:53:42;18.87;;;5.90;;
10090;SDS011;5084;51.386;6.778;2024-01-25T01:56:09;12.07;;;5.47;;
10090;SDS011;5084;51.386;6.778;2024-01-25T01:58:35;14.57;;;6.00;;
10090;SDS011;5084;51.386;6.778;2024-01-25T02:01:01;17.77;;;6.57;;
10090;SDS011;5084;51.386;6.778;2024-01-25T02:03:27;18.00;;;5.87;;
10090;SDS011;5084;51.386;6.778;2024-01-25T02:05:53;21.30;;;6.00;;
10090;SDS011;5084;51.386;6.778;2024-01-25T02:08:20;14.20;;;4.87;;
10090;SDS011;5084;51.386;6.778;2024-01-25T02:10:46;14.83;;;4.87;;
10090;SDS011;5084;51.386;6.778;2024-01-25T02:13:12;10.93;;;5.20;;
10090;SDS011;5084;51.386;6.778;2024-01-25T02:15:38;12.47;;;4.73;;
10090;SDS011;5084;51.386;6.778;2024-01-25T02:18:04;11.47;;;4.63;;
10090;SDS011;5084;51.386;6.778;2024-01-25T02:20:30;14.70;;;5.20;;
10090;SDS011;5084;51.386;6.778;2024-01-25T02:22:56;13.27;;;6.03;;
10090;SDS011;5084;51.386;6.778;2024-01-25T02:25:22;17.27;;;5.70;;
10090;SDS011;5084;51.386;6.778;2024-01-25T02:27:49;12.73;;;5.40;;
10090;SDS011;5084;51.386;6.778;2024-01-25T02:30:15;14.90;;;5.00;;
10090;SDS011;5084;51.386;6.778;2024-01-25T02:32:42;14.03;;;4.70;;
10090;SDS011;5084;51.386;6.778;2024-01-25T02:35:09;12.60;;;4.40;;
10090;SDS011;5084;51.386;6.778;2024-01-25T02:37:35;14.60;;;4.97;;
10090;SDS011;5084;51.386;6.778;2024-01-25T02:40:01;12.50;;;4.37;;
10090;SDS011;5084;51.386;6.778;2024-01-25T02:42:28;11.37;;;4.53;;
10090;SDS011;5084;51.386;6.778;2024-01-25T02:44:54;9.07;;;4.00;;
10090;SDS011;5084;51.386;6.778;2024-01-25T02:47:20;14.77;;;4.40;;
10090;SDS011;5084;51.386;6.778;2024-01-25T02:49:46;17.37;;;4.30;;
10090;SDS011;5084;51.386;6.778;2024-01-25T02:52:12;11.50;;;3.83;;
10090;SDS011;5084;51.386;6.778;2024-01-25T02:54:38;12.50;;;4.60;;
10090;SDS011;5084;51.386;6.778;2024-01-25T02:57:04;14.77;;;4.63;;
10090;SDS011;5084;51.386;6.778;2024-01-25T02:59:31;13.90;;;5.07;;
10090;SDS011;5084;51.386;6.778;2024-01-25T03:01:57;11.40;;;4.63;;
10090;SDS011;5084;51.386;6.778;2024-01-25T03:04:23;16.20;;;3.93;;
10090;SDS011;5084;51.386;6.778;2024-01-25T03:06:49;22.93;;;4.83;;
10090;SDS011;5084;51.386;6.778;2024-01-25T03:09:15;14.70;;;4.97;;
10090;SDS011;5084;51.386;6.778;2024-01-25T03:11:41;18.87;;;5.00;;
10090;SDS011;5084;51.386;6.778;2024-01-25T03:14:07;15.37;;;5.57;;
10090;SDS011;5084;51.386;6.778;2024-01-25T03:16:33;15.07;;;4.03;;
10090;SDS011;5084;51.386;6.778;2024-01-25T03:18:59;13.43;;;4.33;;
10090;SDS011;5084;51.386;6.778;2024-01-25T03:21:25;16.73;;;5.17;;
10090;SDS011;5084;51.386;6.778;2024-01-25T03:23:51;13.00;;;3.67;;
10090;SDS011;5084;51.386;6.778;2024-01-25T03:26:17;19.97;;;5.03;;
10090;SDS011;5084;51.386;6.778;2024-01-25T03:28:43;13.70;;;5.30;;
10090;SDS011;5084;51.386;6.778;2024-01-25T03:31:09;12.33;;;4.30;;
10090;SDS011;5084;51.386;6.778;2024-01-25T03:33:35;10.33;;;4.70;;
10090;SDS011;5084;51.386;6.778;2024-01-25T03:36:05;12.07;;;4.57;;
10090;SDS011;5084;51.386;6.778;2024-01-25T03:38:31;16.33;;;5.17;;
10090;SDS011;5084;51.386;6.778;2024-01-25T03:40:57;18.10;;;4.53;;
10090;SDS011;5084;51.386;6.778;2024-01-25T03:43:26;14.20;;;5.30;;
10090;SDS011;5084;51.386;6.778;2024-01-25T03:45:52;12.50;;;4.57;;
10090;SDS011;5084;51.386;6.778;2024-01-25T03:48:18;15.00;;;5.40;;
10090;SDS011;5084;51.386;6.778;2024-01-25T03:50:44;10.63;;;4.43;;
10090;SDS011;5084;51.386;6.778;2024-01-25T03:53:10;12.87;;;4.57;;
10090;SDS011;5084;51.386;6.778;2024-01-25T03:55:37;12.70;;;5.03;;
10090;SDS011;5084;51.386;6.778;2024-01-25T03:58:03;13.07;;;4.30;;
10090;SDS011;5084;51.386;6.778;2024-01-25T04:00:29;18.73;;;5.57;;
10090;SDS011;5084;51.386;6.778;2024-01-25T04:02:55;12.93;;;4.60;;
10090;SDS011;5084;51.386;6.778;2024-01-25T04:05:21;13.37;;;4.83;;
10090;SDS011;5084;51.386;6.778;2024-01-25T04:07:47;16.13;;;6.00;;
10090;SDS011;5084;51.386;6.778;2024-01-25T04:10:13;15.43;;;4.77;;
10090;SDS011;5084;51.386;6.778;2024-01-25T04:12:39;14.17;;;4.70;;
10090;SDS011;5084;51.386;6.778;2024-01-25T04:15:05;9.30;;;4.20;;
10090;SDS011;5084;51.386;6.778;2024-01-25T04:17:31;15.60;;;5.10;;
10090;SDS011;5084;51.386;6.778;2024-01-25T04:19:57;12.17;;;5.10;;
10090;SDS011;5084;51.386;6.778;2024-01-25T04:22:23;11.63;;;4.53;;
10090;SDS011;5084;51.386;6.778;2024-01-25T04:24:49;14.67;;;4.70;;
10090;SDS011;5084;51.386;6.778;2024-01-25T04:27:15;11.53;;;4.30;;
10090;SDS011;5084;51.386;6.778;2024-01-25T04:29:42;17.53;;;4.67;;
10090;SDS011;5084;51.386;6.778;2024-01-25T04:32:08;10.23;;;4.83;;
10090;SDS011;5084;51.386;6.778;2024-01-25T04:34:34;13.60;;;4.27;;
10090;SDS011;5084;51.386;6.778;2024-01-25T04:37:01;10.90;;;5.10;;
10090;SDS011;5084;51.386;6.778;2024-01-25T04:39:27;15.37;;;5.10;;
10090;SDS011;5084;51.386;6.778;2024-01-25T04:41:53;14.90;;;5.00;;
10090;SDS011;5084;51.386;6.778;2024-01-25T04:44:19;13.27;;;5.27;;
10090;SDS011;5084;51.386;6.778;2024-01-25T04:46:45;10.80;;;4.50;;
10090;SDS011;5084;51.386;6.778;2024-01-25T04:49:11;10.80;;;4.47;;
10090;SDS011;5084;51.386;6.778;2024-01-25T04:51:37;9.40;;;4.57;;
10090;SDS011;5084;51.386;6.778;2024-01-25T04:54:03;16.80;;;5.50;;
10090;SDS011;5084;51.386;6.778;2024-01-25T04:56:29;10.63;;;3.37;;
10090;SDS011;5084;51.386;6.778;2024-01-25T04:58:55;15.90;;;4.33;;
10090;SDS011;5084;51.386;6.778;2024-01-25T05:01:21;13.70;;;4.77;;
10090;SDS011;5084;51.386;6.778;2024-01-25T05:03:47;13.45;;;4.60;;
10090;SDS011;5084;51.386;6.778;2024-01-25T05:06:13;11.75;;;5.05;;
10090;SDS011;5084;51.386;6.778;2024-01-25T05:08:41;13.80;;;5.53;;
10090;SDS011;5084;51.386;6.778;2024-01-25T05:11:07;11.40;;;4.67;;
10090;SDS011;5084;51.386;6.778;2024-01-25T05:13:34;13.37;;;4.87;;
10090;SDS011;5084;51.386;6.778;2024-01-25T05:16:00;10.37;;;3.70;;
10090;SDS011;5084;51.386;6.778;2024-01-25T05:18:26;13.80;;;4.43;;
10090;SDS011;5084;51.386;6.778;2024-01-25T05:20:52;9.33;;;4.47;;
10090;SDS011;5084;51.386;6.778;2024-01-25T05:23:18;10.67;;;3.97;;
10090;SDS011;5084;51.386;6.778;2024-01-25T05:25:44;16.00;;;4.73;;
10090;SDS011;5084;51.386;6.778;2024-01-25T05:28:10;10.83;;;4.40;;
10090;SDS011;5084;51.386;6.778;2024-01-25T05:30:36;14.13;;;5.50;;
10090;SDS011;5084;51.386;6.778;2024-01-25T05:33:02;12.87;;;5.07;;
10090;SDS011;5084;51.386;6.778;2024-01-25T05:35:28;11.07;;;4.10;;
10090;SDS011;5084;51.386;6.778;2024-01-25T05:37:54;10.53;;;3.90;;
10090;SDS011;5084;51.386;6.778;2024-01-25T05:40:20;11.97;;;4.07;;
10090;SDS011;5084;51.386;6.778;2024-01-25T05:42:46;11.35;;;3.95;;
10090;SDS011;5084;51.386;6.778;2024-01-25T05:45:12;9.73;;;4.97;;
10090;SDS011;5084;51.386;6.778;2024-01-25T05:47:38;10.70;;;4.20;;
10090;SDS011;5084;51.386;6.778;2024-01-25T05:50:04;13.33;;;4.57;;
10090;SDS011;5084;51.386;6.778;2024-01-25T05:52:30;13.47;;;5.43;;
10090;SDS011;5084;51.386;6.778;2024-01-25T05:54:57;12.47;;;4.40;;
10090;SDS011;5084;51.386;6.778;2024-01-25T05:57:23;10.40;;;4.43;;
10090;SDS011;5084;51.386;6.778;2024-01-25T05:59:49;11.63;;;4.63;;
10090;SDS011;5084;51.386;6.778;2024-01-25T06:02:15;8.03;;;4.77;;
10090;SDS011;5084;51.386;6.778;2024-01-25T06:04:41;14.47;;;5.23;;
10090;SDS011;5084;51.386;6.778;2024-01-25T06:07:07;11.17;;;4.63;;
10090;SDS011;5084;51.386;6.778;2024-01-25T06:09:33;12.03;;;5.23;;
10090;SDS011;5084;51.386;6.778;2024-01-25T06:11:59;10.40;;;5.13;;
10090;SDS011;5084;51.386;6.778;2024-01-25T06:14:25;11.73;;;5.47;;
10090;SDS011;5084;51.386;6.778;2024-01-25T06:16:51;8.77;;;4.90;;
10090;SDS011;5084;51.386;6.778;2024-01-25T06:19:17;13.40;;;5.87;;
10090;SDS011;5084;51.386;6.778;2024-01-25T06:21:43;9.37;;;4.97;;
10090;SDS011;5084;51.386;6.778;2024-01-25T06:24:09;13.33;;;5.80;;
10090;SDS011;5084;51.386;6.778;2024-01-25T06:26:35;13.13;;;5.10;;
10090;SDS011;5084;51.386;6.778;2024-01-25T06:29:01;15.07;;;4.97;;
10090;SDS011;5084;51.386;6.778;2024-01-25T06:31:27;12.57;;;4.97;;
10090;SDS011;5084;51.386;6.778;2024-01-25T06:33:53;10.87;;;4.93;;
10090;SDS011;5084;51.386;6.778;2024-01-25T06:36:20;11.30;;;4.97;;
10090;SDS011;5084;51.386;6.778;2024-01-25T06:38:46;10.00;;;4.03;;
10090;SDS011;5084;51.386;6.778;2024-01-25T06:41:12;15.00;;;4.90;;
10090;SDS011;5084;51.386;6.778;2024-01-25T06:43:38;10.20;;;4.73;;
10090;SDS011;5084;51.386;6.778;2024-01-25T06:46:05;10.50;;;4.93;;
10090;SDS011;5084;51.386;6.778;2024-01-25T06:48:32;10.83;;;4.90;;
10090;SDS011;5084;51.386;6.778;2024-01-25T06:50:58;9.03;;;4.03;;
10090;SDS011;5084;51.386;6.778;2024-01-25T06:53:24;11.90;;;4.50;;
10090;SDS011;5084;51.386;6.778;2024-01-25T06:55:50;12.63;;;4.07;;
10090;SDS011;5084;51.386;6.778;2024-01-25T06:58:16;12.37;;;5.23;;
10090;SDS011;5084;51.386;6.778;2024-01-25T07:00:42;12.23;;;4.80;;
10090;SDS011;5084;51.386;6.778;2024-01-25T07:03:10;8.43;;;4.13;;
10090;SDS011;5084;51.386;6.778;2024-01-25T07:05:36;11.27;;;4.00;;
10090;SDS011;5084;51.386;6.778;2024-01-25T07:08:02;8.87;;;4.53;;
10090;SDS011;5084;51.386;6.778;2024-01-25T07:10:28;9.10;;;4.03;;
10090;SDS011;5084;51.386;6.778;2024-01-25T07:12:54;11.33;;;5.10;;
10090;SDS011;5084;51.386;6.778;2024-01-25T07:15:20;6.13;;;3.70;;
10090;SDS011;5084;51.386;6.778;2024-01-25T07:17:46;9.73;;;4.30;;
10090;SDS011;5084;51.386;6.778;2024-01-25T07:20:13;8.73;;;4.40;;
10090;SDS011;5084;51.386;6.778;2024-01-25T07:22:39;11.13;;;3.70;;
10090;SDS011;5084;51.386;6.778;2024-01-25T07:25:05;9.57;;;4.03;;
10090;SDS011;5084;51.386;6.778;2024-01-25T07:27:31;8.70;;;3.90;;
10090;SDS011;5084;51.386;6.778;2024-01-25T07:29:57;8.60;;;3.57;;
10090;SDS011;5084;51.386;6.778;2024-01-25T07:32:23;11.07;;;3.93;;
10090;SDS011;5084;51.386;6.778;2024-01-25T07:34:50;11.47;;;3.77;;
10090;SDS011;5084;51.386;6.778;2024-01-25T07:37:16;11.20;;;4.33;;
10090;SDS011;5084;51.386;6.778;2024-01-25T07:39:43;8.37;;;3.13;;
10090;SDS011;5084;51.386;6.778;2024-01-25T07:42:09;7.93;;;3.67;;
10090;SDS011;5084;51.386;6.778;2024-01-25T07:44:36;8.07;;;3.90;;
10090;SDS011;5084;51.386;6.778;2024-01-25T07:47:02;8.73;;;3.77;;
10090;SDS011;5084;51.386;6.778;2024-01-25T07:49:28;6.60;;;3.57;;
10090;SDS011;5084;51.386;6.778;2024-01-25T07:51:55;11.93;;;4.90;;
10090;SDS011;5084;51.386;6.778;2024-01-25T07:54:24;14.37;;;3.80;;
10090;SDS011;5084;51.386;6.778;2024-01-25T07:56:50;11.33;;;3.53;;
10090;SDS011;5084;51.386;6.778;2024-01-25T07:59:16;8.17;;;3.50;;
10090;SDS011;5084;51.386;6.778;2024-01-25T08:01:42;12.70;;;4.30;;
10090;SDS011;5084;51.386;6.778;2024-01-25T08:04:08;7.53;;;3.33;;
10090;SDS011;5084;51.386;6.778;2024-01-25T08:06:34;9.83;;;3.57;;
10090;SDS011;5084;51.386;6.778;2024-01-25T08:09:00;11.87;;;4.10;;
10090;SDS011;5084;51.386;6.778;2024-01-25T08:11:27;12.63;;;4.93;;
10090;SDS011;5084;51.386;6.778;2024-01-25T08:13:53;10.87;;;3.60;;
10090;SDS011;5084;51.386;6.778;2024-01-25T08:16:19;9.17;;;3.73;;
10090;SDS011;5084;51.386;6.778;2024-01-25T08:18:48;7.93;;;3.50;;
10090;SDS011;5084;51.386;6.778;2024-01-25T08:21:14;7.23;;;2.90;;
10090;SDS011;5084;51.386;6.778;2024-01-25T08:23:41;7.37;;;3.37;;
10090;SDS011;5084;51.386;6.778;2024-01-25T08:26:07;5.17;;;3.17;;
10090;SDS011;5084;51.386;6.778;2024-01-25T08:28:40;9.83;;;4.03;;
10090;SDS011;5084;51.386;6.778;2024-01-25T08:31:08;9.77;;;3.67;;
10090;SDS011;5084;51.386;6.778;2024-01-25T08:33:34;9.03;;;4.07;;
10090;SDS011;5084;51.386;6.778;2024-01-25T08:36:00;6.90;;;3.27;;
10090;SDS011;5084;51.386;6.778;2024-01-25T08:38:27;10.23;;;4.70;;
10090;SDS011;5084;51.386;6.778;2024-01-25T08:40:53;12.27;;;3.83;;
10090;SDS011;5084;51.386;6.778;2024-01-25T08:43:19;9.13;;;3.70;;
10090;SDS011;5084;51.386;6.778;2024-01-25T08:45:45;9.40;;;3.20;;
10090;SDS011;5084;51.386;6.778;2024-01-25T08:48:11;6.77;;;3.80;;
10090;SDS011;5084;51.386;6.778;2024-01-25T08:50:38;9.03;;;3.73;;
10090;SDS011;5084;51.386;6.778;2024-01-25T08:53:04;7.77;;;3.70;;
10090;SDS011;5084;51.386;6.778;2024-01-25T08:55:30;9.87;;;3.43;;
10090;SDS011;5084;51.386;6.778;2024-01-25T08:57:56;8.17;;;3.70;;
10090;SDS011;5084;51.386;6.778;2024-01-25T09:00:22;9.50;;;3.60;;
10090;SDS011;5084;51.386;6.778;2024-01-25T09:02:48;10.80;;;4.57;;
10090;SDS011;5084;51.386;6.778;2024-01-25T09:05:14;8.83;;;3.67;;
10090;SDS011;5084;51.386;6.778;2024-01-25T09:07:40;8.07;;;3.70;;
10090;SDS011;5084;51.386;6.778;2024-01-25T09:10:07;8.07;;;3.67;;
10090;SDS011;5084;51.386;6.778;2024-01-25T09:12:34;8.60;;;4.17;;
10090;SDS011;5084;51.386;6.778;2024-01-25T09:15:00;9.67;;;3.60;;
10090;SDS011;5084;51.386;6.778;2024-01-25T09:17:26;9.97;;;4.60;;
10090;SDS011;5084;51.386;6.778;2024-01-25T09:19:52;8.40;;;3.90;;
10090;SDS011;5084;51.386;6.778;2024-01-25T09:22:19;10.67;;;4.30;;
10090;SDS011;5084;51.386;6.778;2024-01-25T09:24:45;8.27;;;4.37;;
10090;SDS011;5084;51.386;6.778;2024-01-25T09:27:11;8.80;;;3.60;;
10090;SDS011;5084;51.386;6.778;2024-01-25T09:29:38;11.40;;;4.27;;
10090;SDS011;5084;51.386;6.778;2024-01-25T09:32:05;9.17;;;3.90;;
10090;SDS011;5084;51.386;6.778;2024-01-25T09:34:32;10.37;;;4.17;;
10090;SDS011;5084;51.386;6.778;2024-01-25T09:36:58;11.70;;;4.27;;
10090;SDS011;5084;51.386;6.778;2024-01-25T09:39:24;8.40;;;4.20;;
10090;SDS011;5084;51.386;6.778;2024-01-25T09:41:50;16.87;;;5.07;;
10090;SDS011;5084;51.386;6.778;2024-01-25T09:44:16;8.23;;;4.43;;
10090;SDS011;5084;51.386;6.778;2024-01-25T09:46:43;12.73;;;5.23;;
10090;SDS011;5084;51.386;6.778;2024-01-25T09:49:09;21.47;;;6.03;;
10090;SDS011;5084;51.386;6.778;2024-01-25T09:51:39;17.20;;;5.67;;
10090;SDS011;5084;51.386;6.778;2024-01-25T09:54:06;17.43;;;6.20;;
10090;SDS011;5084;51.386;6.778;2024-01-25T09:56:33;15.70;;;6.77;;
10090;SDS011;5084;51.386;6.778;2024-01-25T09:59:00;14.67;;;6.50;;
10090;SDS011;5084;51.386;6.778;2024-01-25T10:01:26;18.23;;;7.30;;
10090;SDS011;5084;51.386;6.778;2024-01-25T10:03:53;18.00;;;5.93;;
10090;SDS011;5084;51.386;6.778;2024-01-25T10:06:21;18.97;;;8.23;;
10090;SDS011;5084;51.386;6.778;2024-01-25T10:08:47;18.13;;;7.93;;
10090;SDS011;5084;51.386;6.778;2024-01-25T10:11:13;25.93;;;9.30;;
10090;SDS011;5084;51.386;6.778;2024-01-25T10:13:40;18.23;;;8.47;;
10090;SDS011;5084;51.386;6.778;2024-01-25T10:16:07;18.47;;;7.50;;
10090;SDS011;5084;51.386;6.778;2024-01-25T10:18:34;21.43;;;8.43;;
10090;SDS011;5084;51.386;6.778;2024-01-25T10:21:00;22.87;;;7.87;;
10090;SDS011;5084;51.386;6.778;2024-01-25T10:23:26;19.90;;;8.50;;
10090;SDS011;5084;51.386;6.778;2024-01-25T10:25:55;17.93;;;8.40;;
10090;SDS011;5084;51.386;6.778;2024-01-25T10:28:23;20.47;;;8.87;;
10090;SDS011;5084;51.386;6.778;2024-01-25T10:30:50;20.50;;;8.27;;
10090;SDS011;5084;51.386;6.778;2024-01-25T10:33:16;24.80;;;9.17;;
10090;SDS011;5084;51.386;6.778;2024-01-25T10:35:42;20.90;;;8.23;;
10090;SDS011;5084;51.386;6.778;2024-01-25T10:38:10;19.90;;;8.43;;
10090;SDS011;5084;51.386;6.778;2024-01-25T10:40:36;20.33;;;9.07;;
10090;SDS011;5084;51.386;6.778;2024-01-25T10:43:03;15.00;;;8.97;;
10090;SDS011;5084;51.386;6.778;2024-01-25T10:45:29;22.53;;;10.10;;
10090;SDS011;5084;51.386;6.778;2024-01-25T10:47:55;20.03;;;9.43;;
10090;SDS011;5084;51.386;6.778;2024-01-25T10:50:22;14.67;;;9.17;;
10090;SDS011;5084;51.386;6.778;2024-01-25T10:52:49;16.13;;;8.93;;
10090;SDS011;5084;51.386;6.778;2024-01-25T10:55:16;20.43;;;9.63;;
10090;SDS011;5084;51.386;6.778;2024-01-25T10:57:43;16.10;;;8.20;;
10090;SDS011;5084;51.386;6.778;2024-01-25T11:00:10;16.60;;;8.77;;
10090;SDS011;5084;51.386;6.778;2024-01-25T11:02:36;18.50;;;9.10;;
10090;SDS011;5084;51.386;6.778;2024-01-25T11:05:14;19.60;;;9.33;;
10090;SDS011;5084;51.386;6.778;2024-01-25T11:07:40;14.90;;;8.30;;
10090;SDS011;5084;51.386;6.778;2024-01-25T11:10:10;19.53;;;10.77;;
10090;SDS011;5084;51.386;6.778;2024-01-25T11:12:46;23.37;;;9.70;;
10090;SDS011;5084;51.386;6.778;2024-01-25T11:15:16;24.57;;;9.53;;
10090;SDS011;5084;51.386;6.778;2024-01-25T11:17:43;20.70;;;9.33;;
10090;SDS011;5084;51.386;6.778;2024-01-25T11:20:19;19.60;;;9.10;;
10090;SDS011;5084;51.386;6.778;2024-01-25T11:22:45;20.57;;;8.17;;
10090;SDS011;5084;51.386;6.778;2024-01-25T11:25:20;19.77;;;8.73;;
10090;SDS011;5084;51.386;6.778;2024-01-25T11:27:47;15.87;;;8.97;;
10090;SDS011;5084;51.386;6.778;2024-01-25T11:30:14;21.10;;;10.87;;
10090;SDS011;5084;51.386;6.778;2024-01-25T11:32:40;17.63;;;9.57;;
10090;SDS011;5084;51.386;6.778;2024-01-25T11:35:07;20.30;;;9.20;;
10090;SDS011;5084;51.386;6.778;2024-01-25T11:37:36;19.13;;;9.20;;
10090;SDS011;5084;51.386;6.778;2024-01-25T11:40:02;15.20;;;9.47;;
10090;SDS011;5084;51.386;6.778;2024-01-25T11:42:28;23.03;;;10.33;;
10090;SDS011;5084;51.386;6.778;2024-01-25T11:44:55;26.23;;;9.40;;
10090;SDS011;5084;51.386;6.778;2024-01-25T11:47:22;22.93;;;9.17;;
10090;SDS011;5084;51.386;6.778;2024-01-25T11:49:48;24.13;;;10.20;;
10090;SDS011;5084;51.386;6.778;2024-01-25T11:52:14;20.67;;;10.27;;
10090;SDS011;5084;51.386;6.778;2024-01-25T11:54:40;22.73;;;9.40;;
10090;SDS011;5084;51.386;6.778;2024-01-25T11:57:06;17.70;;;8.60;;
10090;SDS011;5084;51.386;6.778;2024-01-25T11:59:33;23.30;;;9.80;;
10090;SDS011;5084;51.386;6.778;2024-01-25T12:01:59;23.23;;;9.40;;
10090;SDS011;5084;51.386;6.778;2024-01-25T12:04:26;25.27;;;10.23;;
10090;SDS011;5084;51.386;6.778;2024-01-25T12:06:52;22.53;;;9.53;;
10090;SDS011;5084;51.386;6.778;2024-01-25T12:09:18;21.97;;;10.20;;
10090;SDS011;5084;51.386;6.778;2024-01-25T12:11:48;23.70;;;11.57;;
10090;SDS011;5084;51.386;6.778;2024-01-25T12:14:16;20.70;;;9.63;;
10090;SDS011;5084;51.386;6.778;2024-01-25T12:16:42;17.97;;;9.60;;
10090;SDS011;5084;51.386;6.778;2024-01-25T12:19:08;20.57;;;9.73;;
10090;SDS011;5084;51.386;6.778;2024-01-25T12:21:34;25.87;;;9.67;;
10090;SDS011;5084;51.386;6.778;2024-01-25T12:24:01;25.43;;;11.23;;
10090;SDS011;5084;51.386;6.778;2024-01-25T12:26:27;23.73;;;9.97;;
10090;SDS011;5084;51.386;6.778;2024-01-25T12:28:53;24.77;;;10.33;;
10090;SDS011;5084;51.386;6.778;2024-01-25T12:31:19;24.37;;;9.77;;
10090;SDS011;5084;51.386;6.778;2024-01-25T12:33:45;22.23;;;10.00;;
10090;SDS011;5084;51.386;6.778;2024-01-25T12:36:12;28.40;;;10.97;;
10090;SDS011;5084;51.386;6.778;2024-01-25T12:38:38;25.50;;;11.23;;
10090;SDS011;5084;51.386;6.778;2024-01-25T12:41:04;17.87;;;8.93;;
10090;SDS011;5084;51.386;6.778;2024-01-25T12:43:30;23.90;;;11.10;;
10090;SDS011;5084;51.386;6.778;2024-01-25T12:45:56;24.40;;;10.60;;
10090;SDS011;5084;51.386;6.778;2024-01-25T12:48:22;21.20;;;10.17;;
10090;SDS011;5084;51.386;6.778;2024-01-25T12:50:48;22.87;;;9.87;;
10090;SDS011;5084;51.386;6.778;2024-01-25T12:53:14;25.63;;;11.40;;
10090;SDS011;5084;51.386;6.778;2024-01-25T12:55:40;25.13;;;11.23;;
10090;SDS011;5084;51.386;6.778;2024-01-25T12:58:07;23.47;;;12.23;;
10090;SDS011;5084;51.386;6.778;2024-01-25T13:00:33;18.80;;;10.27;;
10090;SDS011;5084;51.386;6.778;2024-01-25T13:02:59;27.50;;;11.93;;
10090;SDS011;5084;51.386;6.778;2024-01-25T13:05:28;26.70;;;12.03;;
10090;SDS011;5084;51.386;6.778;2024-01-25T13:07:54;26.50;;;11.73;;
10090;SDS011;5084;51.386;6.778;2024-01-25T13:10:20;24.70;;;12.53;;
10090;SDS011;5084;51.386;6.778;2024-01-25T13:12:47;23.97;;;10.87;;
10090;SDS011;5084;51.386;6.778;2024-01-25T13:15:13;28.63;;;12.37;;
10090;SDS011;5084;51.386;6.778;2024-01-25T13:17:39;23.70;;;12.33;;
10090;SDS011;5084;51.386;6.778;2024-01-25T13:20:06;24.50;;;12.00;;
10090;SDS011;5084;51.386;6.778;2024-01-25T13:22:32;24.73;;;12.33;;
10090;SDS011;5084;51.386;6.778;2024-01-25T13:24:59;26.53;;;12.33;;
10090;SDS011;5084;51.386;6.778;2024-01-25T13:27:25;23.97;;;12.13;;
10090;SDS011;5084;51.386;6.778;2024-01-25T13:29:52;20.87;;;10.43;;
10090;SDS011;5084;51.386;6.778;2024-01-25T13:32:18;27.23;;;11.10;;
10090;SDS011;5084;51.386;6.778;2024-01-25T13:34:44;25.90;;;12.90;;
10090;SDS011;5084;51.386;6.778;2024-01-25T13:37:10;23.07;;;11.37;;
10090;SDS011;5084;51.386;6.778;2024-01-25T13:39:36;24.43;;;11.87;;
10090;SDS011;5084;51.386;6.778;2024-01-25T13:42:02;22.80;;;12.13;;
10090;SDS011;5084;51.386;6.778;2024-01-25T13:44:28;22.00;;;11.57;;
10090;SDS011;5084;51.386;6.778;2024-01-25T13:46:54;24.23;;;11.30;;
10090;SDS011;5084;51.386;6.778;2024-01-25T13:49:21;23.97;;;12.83;;
10090;SDS011;5084;51.386;6.778;2024-01-25T13:51:47;28.07;;;13.93;;
10090;SDS011;5084;51.386;6.778;2024-01-25T13:54:13;19.63;;;9.67;;
10090;SDS011;5084;51.386;6.778;2024-01-25T13:56:39;26.87;;;12.13;;
10090;SDS011;5084;51.386;6.778;2024-01-25T13:59:05;23.60;;;11.10;;
10090;SDS011;5084;51.386;6.778;2024-01-25T14:01:32;25.33;;;11.90;;
10090;SDS011;5084;51.386;6.778;2024-01-25T14:03:58;24.93;;;11.73;;
10090;SDS011;5084;51.386;6.778;2024-01-25T14:06:24;22.83;;;10.53;;
10090;SDS011;5084;51.386;6.778;2024-01-25T14:08:50;23.27;;;11.40;;
10090;SDS011;5084;51.386;6.778;2024-01-25T14:11:16;22.27;;;11.60;;
10090;SDS011;5084;51.386;6.778;2024-01-25T14:13:42;25.53;;;11.87;;
10090;SDS011;5084;51.386;6.778;2024-01-25T14:16:08;29.63;;;12.40;;
10090;SDS011;5084;51.386;6.778;2024-01-25T14:18:38;19.23;;;11.27;;
10090;SDS011;5084;51.386;6.778;2024-01-25T14:21:04;21.87;;;11.53;;
10090;SDS011;5084;51.386;6.778;2024-01-25T14:23:30;27.07;;;12.20;;
10090;SDS011;5084;51.386;6.778;2024-01-25T14:25:56;22.57;;;10.50;;
10090;SDS011;5084;51.386;6.778;2024-01-25T14:28:22;24.27;;;11.53;;
10090;SDS011;5084;51.386;6.778;2024-01-25T14:30:49;23.23;;;11.83;;
10090;SDS011;5084;51.386;6.778;2024-01-25T14:33:15;30.93;;;11.73;;
10090;SDS011;5084;51.386;6.778;2024-01-25T14:35:41;25.37;;;11.17;;
10090;SDS011;5084;51.386;6.778;2024-01-25T14:38:07;25.83;;;9.90;;
10090;SDS011;5084;51.386;6.778;2024-01-25T14:40:33;21.37;;;10.50;;
10090;SDS011;5084;51.386;6.778;2024-01-25T14:42:59;26.83;;;11.07;;